sensor_id;sensor_type;location;lat;lon;timestamp;P1;durP1;ratioP1;P2;durP2;ratioP2
15931;SDS011;8065;49.520;11.284;2023-01-09T00:00:42;15.93;;;12.17;;
15931;SDS011;8065;49.520;11.284;2023-01-09T00:03:11;15.80;;;12.33;;
15931;SDS011;8065;49.520;11.284;2023-01-09T00:05:38;16.60;;;12.33;;
15931;SDS011;8065;49.520;11.284;2023-01-09T00:08:05;16.00;;;12.27;;
15931;SDS011;8065;49.520;11.284;2023-01-09T00:10:31;19.00;;;13.77;;
15931;SDS011;8065;49.520;11.284;2023-01-09T00:12:58;17.67;;;12.90;;
15931;SDS011;8065;49.520;11.284;2023-01-09T00:15:24;15.80;;;12.57;;
15931;SDS011;8065;49.520;11.284;2023-01-09T00:17:51;18.30;;;12.97;;
15931;SDS011;8065;49.520;11.284;2023-01-09T00:20:18;16.07;;;12.63;;
15931;SDS011;8065;49.520;11.284;2023-01-09T00:22:45;17.23;;;12.37;;
15931;SDS011;8065;49.520;11.284;2023-01-09T00:25:11;17.00;;;11.80;;
15931;SDS011;8065;49.520;11.284;2023-01-09T00:27:38;16.53;;;12.43;;
15931;SDS011;8065;49.520;11.284;2023-01-09T00:30:05;18.23;;;13.40;;
15931;SDS011;8065;49.520;11.284;2023-01-09T00:32:32;16.40;;;12.10;;
15931;SDS011;8065;49.520;11.284;2023-01-09T00:34:58;18.83;;;13.37;;
15931;SDS011;8065;49.520;11.284;2023-01-09T00:37:26;16.13;;;11.93;;
15931;SDS011;8065;49.520;11.284;2023-01-09T00:39:52;15.00;;;11.67;;
15931;SDS011;8065;49.520;11.284;2023-01-09T00:42:19;16.07;;;12.20;;
15931;SDS011;8065;49.520;11.284;2023-01-09T00:44:48;17.13;;;12.70;;
15931;SDS011;8065;49.520;11.284;2023-01-09T00:47:19;17.10;;;12.87;;
15931;SDS011;8065;49.520;11.284;2023-01-09T00:49:50;15.70;;;11.90;;
15931;SDS011;8065;49.520;11.284;2023-01-09T00:52:18;16.73;;;11.97;;
15931;SDS011;8065;49.520;11.284;2023-01-09T00:54:46;13.90;;;11.10;;
15931;SDS011;8065;49.520;11.284;2023-01-09T00:57:13;14.93;;;11.37;;
15931;SDS011;8065;49.520;11.284;2023-01-09T00:59:40;15.80;;;11.70;;
15931;SDS011;8065;49.520;11.284;2023-01-09T01:02:08;15.50;;;11.47;;
15931;SDS011;8065;49.520;11.284;2023-01-09T01:04:34;14.27;;;11.00;;
15931;SDS011;8065;49.520;11.284;2023-01-09T01:07:19;15.43;;;11.90;;
15931;SDS011;8065;49.520;11.284;2023-01-09T01:10:07;16.37;;;11.30;;
15931;SDS011;8065;49.520;11.284;2023-01-09T01:12:36;15.30;;;11.33;;
15931;SDS011;8065;49.520;11.284;2023-01-09T01:15:04;14.77;;;11.77;;
15931;SDS011;8065;49.520;11.284;2023-01-09T01:17:32;16.47;;;11.63;;
15931;SDS011;8065;49.520;11.284;2023-01-09T01:19:59;16.20;;;11.70;;
15931;SDS011;8065;49.520;11.284;2023-01-09T01:22:25;15.63;;;11.67;;
15931;SDS011;8065;49.520;11.284;2023-01-09T01:24:52;14.53;;;11.37;;
15931;SDS011;8065;49.520;11.284;2023-01-09T01:27:19;14.97;;;11.43;;
15931;SDS011;8065;49.520;11.284;2023-01-09T01:29:46;15.17;;;11.10;;
15931;SDS011;8065;49.520;11.284;2023-01-09T01:32:12;17.57;;;12.33;;
15931;SDS011;8065;49.520;11.284;2023-01-09T01:34:39;17.23;;;11.00;;
15931;SDS011;8065;49.520;11.284;2023-01-09T01:37:05;15.10;;;11.03;;
15931;SDS011;8065;49.520;11.284;2023-01-09T01:39:32;16.03;;;10.73;;
15931;SDS011;8065;49.520;11.284;2023-01-09T01:41:58;14.00;;;11.23;;
15931;SDS011;8065;49.520;11.284;2023-01-09T01:47:34;14.93;;;10.50;;
15931;SDS011;8065;49.520;11.284;2023-01-09T01:50:07;12.87;;;9.90;;
15931;SDS011;8065;49.520;11.284;2023-01-09T01:52:36;13.80;;;10.53;;
15931;SDS011;8065;49.520;11.284;2023-01-09T01:55:04;11.90;;;9.73;;
15931;SDS011;8065;49.520;11.284;2023-01-09T01:57:33;13.63;;;10.00;;
15931;SDS011;8065;49.520;11.284;2023-01-09T02:00:01;12.87;;;10.23;;
15931;SDS011;8065;49.520;11.284;2023-01-09T02:02:29;13.30;;;9.70;;
15931;SDS011;8065;49.520;11.284;2023-01-09T02:04:59;12.60;;;9.57;;
15931;SDS011;8065;49.520;11.284;2023-01-09T02:07:27;12.10;;;8.87;;
15931;SDS011;8065;49.520;11.284;2023-01-09T02:09:54;10.37;;;8.83;;
15931;SDS011;8065;49.520;11.284;2023-01-09T02:12:22;11.57;;;8.97;;
15931;SDS011;8065;49.520;11.284;2023-01-09T02:14:50;11.13;;;8.57;;
15931;SDS011;8065;49.520;11.284;2023-01-09T02:20:32;13.73;;;10.20;;
15931;SDS011;8065;49.520;11.284;2023-01-09T02:29:45;12.43;;;9.40;;
15931;SDS011;8065;49.520;11.284;2023-01-09T02:32:39;11.60;;;9.37;;
15931;SDS011;8065;49.520;11.284;2023-01-09T02:35:18;12.83;;;8.97;;
15931;SDS011;8065;49.520;11.284;2023-01-09T02:37:56;12.13;;;9.40;;
15931;SDS011;8065;49.520;11.284;2023-01-09T02:40:30;12.03;;;8.83;;
15931;SDS011;8065;49.520;11.284;2023-01-09T02:43:02;12.37;;;9.17;;
15931;SDS011;8065;49.520;11.284;2023-01-09T02:45:30;12.80;;;9.37;;
15931;SDS011;8065;49.520;11.284;2023-01-09T02:47:58;13.07;;;9.23;;
15931;SDS011;8065;49.520;11.284;2023-01-09T02:50:26;11.60;;;9.13;;
15931;SDS011;8065;49.520;11.284;2023-01-09T02:53:02;12.83;;;9.63;;
15931;SDS011;8065;49.520;11.284;2023-01-09T02:55:46;11.73;;;9.33;;
15931;SDS011;8065;49.520;11.284;2023-01-09T02:58:25;12.57;;;9.17;;
15931;SDS011;8065;49.520;11.284;2023-01-09T03:01:08;13.20;;;9.77;;
15931;SDS011;8065;49.520;11.284;2023-01-09T03:03:45;12.87;;;9.90;;
15931;SDS011;8065;49.520;11.284;2023-01-09T03:06:17;14.43;;;9.97;;
15931;SDS011;8065;49.520;11.284;2023-01-09T03:08:49;13.57;;;9.70;;
15931;SDS011;8065;49.520;11.284;2023-01-09T03:11:18;15.17;;;11.10;;
15931;SDS011;8065;49.520;11.284;2023-01-09T03:13:48;14.67;;;10.67;;
15931;SDS011;8065;49.520;11.284;2023-01-09T03:16:18;14.30;;;9.97;;
15931;SDS011;8065;49.520;11.284;2023-01-09T03:18:48;13.20;;;9.70;;
15931;SDS011;8065;49.520;11.284;2023-01-09T03:21:16;12.77;;;9.67;;
15931;SDS011;8065;49.520;11.284;2023-01-09T03:23:49;12.53;;;9.67;;
15931;SDS011;8065;49.520;11.284;2023-01-09T03:26:17;14.83;;;10.37;;
15931;SDS011;8065;49.520;11.284;2023-01-09T03:28:44;14.13;;;10.63;;
15931;SDS011;8065;49.520;11.284;2023-01-09T03:31:11;11.07;;;8.57;;
15931;SDS011;8065;49.520;11.284;2023-01-09T03:33:37;11.73;;;8.80;;
15931;SDS011;8065;49.520;11.284;2023-01-09T03:36:06;11.53;;;8.90;;
15931;SDS011;8065;49.520;11.284;2023-01-09T03:38:33;12.70;;;9.00;;
15931;SDS011;8065;49.520;11.284;2023-01-09T03:41:00;12.23;;;9.30;;
15931;SDS011;8065;49.520;11.284;2023-01-09T03:43:26;12.20;;;9.33;;
15931;SDS011;8065;49.520;11.284;2023-01-09T03:45:53;11.03;;;8.93;;
15931;SDS011;8065;49.520;11.284;2023-01-09T03:48:19;10.53;;;8.30;;
15931;SDS011;8065;49.520;11.284;2023-01-09T03:50:47;11.73;;;9.00;;
15931;SDS011;8065;49.520;11.284;2023-01-09T03:53:15;11.10;;;9.07;;
15931;SDS011;8065;49.520;11.284;2023-01-09T03:55:43;11.57;;;9.20;;
15931;SDS011;8065;49.520;11.284;2023-01-09T03:58:10;12.63;;;9.30;;
15931;SDS011;8065;49.520;11.284;2023-01-09T04:00:36;12.13;;;8.87;;
15931;SDS011;8065;49.520;11.284;2023-01-09T04:03:04;12.60;;;9.10;;
15931;SDS011;8065;49.520;11.284;2023-01-09T04:05:31;10.83;;;8.50;;
15931;SDS011;8065;49.520;11.284;2023-01-09T04:07:58;11.17;;;8.93;;
15931;SDS011;8065;49.520;11.284;2023-01-09T04:10:26;12.47;;;9.20;;
15931;SDS011;8065;49.520;11.284;2023-01-09T04:12:52;11.13;;;8.53;;
15931;SDS011;8065;49.520;11.284;2023-01-09T04:15:19;13.33;;;10.20;;
15931;SDS011;8065;49.520;11.284;2023-01-09T04:17:45;11.67;;;9.33;;
15931;SDS011;8065;49.520;11.284;2023-01-09T04:20:12;11.37;;;8.93;;
15931;SDS011;8065;49.520;11.284;2023-01-09T04:22:38;13.30;;;9.73;;
15931;SDS011;8065;49.520;11.284;2023-01-09T04:25:05;12.20;;;10.17;;
15931;SDS011;8065;49.520;11.284;2023-01-09T04:27:33;12.90;;;9.67;;
15931;SDS011;8065;49.520;11.284;2023-01-09T04:30:00;12.50;;;9.50;;
15931;SDS011;8065;49.520;11.284;2023-01-09T04:32:26;12.20;;;9.77;;
15931;SDS011;8065;49.520;11.284;2023-01-09T04:34:53;13.93;;;10.33;;
15931;SDS011;8065;49.520;11.284;2023-01-09T04:37:19;11.57;;;9.57;;
15931;SDS011;8065;49.520;11.284;2023-01-09T04:39:46;14.33;;;10.30;;
15931;SDS011;8065;49.520;11.284;2023-01-09T04:42:13;13.97;;;10.87;;
15931;SDS011;8065;49.520;11.284;2023-01-09T04:44:41;13.23;;;9.87;;
15931;SDS011;8065;49.520;11.284;2023-01-09T04:47:07;12.73;;;10.00;;
15931;SDS011;8065;49.520;11.284;2023-01-09T04:49:34;13.13;;;9.83;;
15931;SDS011;8065;49.520;11.284;2023-01-09T04:52:00;12.27;;;10.00;;
15931;SDS011;8065;49.520;11.284;2023-01-09T04:54:27;12.83;;;10.10;;
15931;SDS011;8065;49.520;11.284;2023-01-09T04:56:53;13.50;;;10.20;;
15931;SDS011;8065;49.520;11.284;2023-01-09T04:59:20;11.70;;;9.63;;
15931;SDS011;8065;49.520;11.284;2023-01-09T05:01:47;12.13;;;9.97;;
15931;SDS011;8065;49.520;11.284;2023-01-09T05:04:16;11.80;;;10.10;;
15931;SDS011;8065;49.520;11.284;2023-01-09T05:06:42;13.87;;;10.77;;
15931;SDS011;8065;49.520;11.284;2023-01-09T05:09:08;11.93;;;9.97;;
15931;SDS011;8065;49.520;11.284;2023-01-09T05:11:35;13.30;;;10.53;;
15931;SDS011;8065;49.520;11.284;2023-01-09T05:14:01;13.60;;;10.37;;
15931;SDS011;8065;49.520;11.284;2023-01-09T05:16:28;12.37;;;10.17;;
15931;SDS011;8065;49.520;11.284;2023-01-09T05:18:57;13.97;;;11.07;;
15931;SDS011;8065;49.520;11.284;2023-01-09T05:21:24;14.57;;;11.30;;
15931;SDS011;8065;49.520;11.284;2023-01-09T05:23:51;14.27;;;10.70;;
15931;SDS011;8065;49.520;11.284;2023-01-09T05:26:18;13.33;;;10.60;;
15931;SDS011;8065;49.520;11.284;2023-01-09T05:28:47;14.63;;;10.80;;
15931;SDS011;8065;49.520;11.284;2023-01-09T05:31:14;14.80;;;11.80;;
15931;SDS011;8065;49.520;11.284;2023-01-09T05:33:40;14.10;;;11.03;;
15931;SDS011;8065;49.520;11.284;2023-01-09T05:36:08;13.33;;;11.20;;
15931;SDS011;8065;49.520;11.284;2023-01-09T05:38:35;16.47;;;11.40;;
15931;SDS011;8065;49.520;11.284;2023-01-09T05:41:02;13.53;;;10.30;;
15931;SDS011;8065;49.520;11.284;2023-01-09T05:43:28;15.33;;;10.87;;
15931;SDS011;8065;49.520;11.284;2023-01-09T05:45:55;15.53;;;11.10;;
15931;SDS011;8065;49.520;11.284;2023-01-09T05:48:21;13.03;;;10.77;;
15931;SDS011;8065;49.520;11.284;2023-01-09T05:50:48;13.37;;;10.73;;
15931;SDS011;8065;49.520;11.284;2023-01-09T05:53:16;13.30;;;11.03;;
15931;SDS011;8065;49.520;11.284;2023-01-09T05:55:42;13.73;;;10.60;;
15931;SDS011;8065;49.520;11.284;2023-01-09T05:58:08;16.30;;;12.80;;
15931;SDS011;8065;49.520;11.284;2023-01-09T06:00:35;13.80;;;10.73;;
15931;SDS011;8065;49.520;11.284;2023-01-09T06:03:01;13.30;;;10.33;;
15931;SDS011;8065;49.520;11.284;2023-01-09T06:05:28;12.90;;;9.97;;
15931;SDS011;8065;49.520;11.284;2023-01-09T06:07:54;13.47;;;10.73;;
15931;SDS011;8065;49.520;11.284;2023-01-09T06:10:22;12.80;;;10.40;;
15931;SDS011;8065;49.520;11.284;2023-01-09T06:12:49;14.23;;;10.13;;
15931;SDS011;8065;49.520;11.284;2023-01-09T06:15:17;12.80;;;10.30;;
15931;SDS011;8065;49.520;11.284;2023-01-09T06:17:44;11.73;;;9.33;;
15931;SDS011;8065;49.520;11.284;2023-01-09T06:20:11;11.10;;;9.20;;
15931;SDS011;8065;49.520;11.284;2023-01-09T06:22:38;10.40;;;8.60;;
15931;SDS011;8065;49.520;11.284;2023-01-09T06:25:04;11.43;;;8.80;;
15931;SDS011;8065;49.520;11.284;2023-01-09T06:27:33;9.50;;;8.47;;
15931;SDS011;8065;49.520;11.284;2023-01-09T06:29:59;10.50;;;7.90;;
15931;SDS011;8065;49.520;11.284;2023-01-09T06:32:26;8.43;;;7.53;;
15931;SDS011;8065;49.520;11.284;2023-01-09T06:34:52;8.87;;;6.83;;
15931;SDS011;8065;49.520;11.284;2023-01-09T06:37:19;7.57;;;6.67;;
15931;SDS011;8065;49.520;11.284;2023-01-09T06:39:45;8.03;;;6.60;;
15931;SDS011;8065;49.520;11.284;2023-01-09T06:42:12;7.10;;;6.17;;
15931;SDS011;8065;49.520;11.284;2023-01-09T06:44:39;6.07;;;5.47;;
15931;SDS011;8065;49.520;11.284;2023-01-09T06:47:06;5.30;;;4.20;;
15931;SDS011;8065;49.520;11.284;2023-01-09T06:49:32;4.73;;;4.23;;
15931;SDS011;8065;49.520;11.284;2023-01-09T06:51:59;3.97;;;3.40;;
15931;SDS011;8065;49.520;11.284;2023-01-09T06:54:29;3.70;;;3.30;;
15931;SDS011;8065;49.520;11.284;2023-01-09T06:56:55;3.57;;;3.17;;
15931;SDS011;8065;49.520;11.284;2023-01-09T06:59:22;2.47;;;2.23;;
15931;SDS011;8065;49.520;11.284;2023-01-09T07:01:50;2.63;;;1.63;;
15931;SDS011;8065;49.520;11.284;2023-01-09T07:04:16;1.30;;;1.20;;
15931;SDS011;8065;49.520;11.284;2023-01-09T07:06:45;1.93;;;1.50;;
15931;SDS011;8065;49.520;11.284;2023-01-09T07:09:12;0.83;;;0.80;;
15931;SDS011;8065;49.520;11.284;2023-01-09T07:11:39;1.00;;;1.00;;
15931;SDS011;8065;49.520;11.284;2023-01-09T07:14:06;1.23;;;0.60;;
15931;SDS011;8065;49.520;11.284;2023-01-09T07:16:33;0.80;;;0.80;;
15931;SDS011;8065;49.520;11.284;2023-01-09T07:19:00;2.07;;;1.87;;
15931;SDS011;8065;49.520;11.284;2023-01-09T07:21:27;0.70;;;0.70;;
15931;SDS011;8065;49.520;11.284;2023-01-09T07:23:53;1.53;;;0.60;;
15931;SDS011;8065;49.520;11.284;2023-01-09T07:26:20;0.50;;;0.50;;
15931;SDS011;8065;49.520;11.284;2023-01-09T07:28:46;0.67;;;0.50;;
15931;SDS011;8065;49.520;11.284;2023-01-09T07:31:12;1.70;;;0.70;;
15931;SDS011;8065;49.520;11.284;2023-01-09T07:33:39;1.03;;;0.70;;
15931;SDS011;8065;49.520;11.284;2023-01-09T07:36:07;0.60;;;0.60;;
15931;SDS011;8065;49.520;11.284;2023-01-09T07:38:33;0.50;;;0.50;;
15931;SDS011;8065;49.520;11.284;2023-01-09T07:41:00;0.60;;;0.60;;
15931;SDS011;8065;49.520;11.284;2023-01-09T07:43:26;0.60;;;0.60;;
15931;SDS011;8065;49.520;11.284;2023-01-09T07:45:53;0.97;;;0.63;;
15931;SDS011;8065;49.520;11.284;2023-01-09T07:48:19;0.60;;;0.60;;
15931;SDS011;8065;49.520;11.284;2023-01-09T07:50:45;0.50;;;0.40;;
15931;SDS011;8065;49.520;11.284;2023-01-09T07:53:13;0.60;;;0.60;;
15931;SDS011;8065;49.520;11.284;2023-01-09T07:55:41;0.60;;;0.60;;
15931;SDS011;8065;49.520;11.284;2023-01-09T07:58:07;0.77;;;0.50;;
15931;SDS011;8065;49.520;11.284;2023-01-09T08:00:34;0.60;;;0.60;;
15931;SDS011;8065;49.520;11.284;2023-01-09T08:03:00;0.60;;;0.47;;
15931;SDS011;8065;49.520;11.284;2023-01-09T08:05:27;0.70;;;0.70;;
15931;SDS011;8065;49.520;11.284;2023-01-09T08:07:53;0.60;;;0.60;;
15931;SDS011;8065;49.520;11.284;2023-01-09T08:10:21;0.80;;;0.80;;
15931;SDS011;8065;49.520;11.284;2023-01-09T08:12:47;2.57;;;2.10;;
15931;SDS011;8065;49.520;11.284;2023-01-09T08:15:14;1.90;;;1.20;;
15931;SDS011;8065;49.520;11.284;2023-01-09T08:17:41;2.37;;;0.93;;
15931;SDS011;8065;49.520;11.284;2023-01-09T08:20:09;1.23;;;0.80;;
15931;SDS011;8065;49.520;11.284;2023-01-09T08:22:36;0.80;;;0.80;;
15931;SDS011;8065;49.520;11.284;2023-01-09T08:25:04;0.70;;;0.70;;
15931;SDS011;8065;49.520;11.284;2023-01-09T08:27:32;0.73;;;0.67;;
15931;SDS011;8065;49.520;11.284;2023-01-09T08:29:59;1.97;;;0.87;;
15931;SDS011;8065;49.520;11.284;2023-01-09T08:32:25;3.17;;;0.70;;
15931;SDS011;8065;49.520;11.284;2023-01-09T08:34:52;1.83;;;0.50;;
15931;SDS011;8065;49.520;11.284;2023-01-09T08:37:18;1.17;;;0.70;;
15931;SDS011;8065;49.520;11.284;2023-01-09T08:39:44;0.60;;;0.60;;
15931;SDS011;8065;49.520;11.284;2023-01-09T08:42:11;1.73;;;0.63;;
15931;SDS011;8065;49.520;11.284;2023-01-09T08:44:56;1.10;;;0.73;;
15931;SDS011;8065;49.520;11.284;2023-01-09T08:47:40;1.77;;;0.70;;
15931;SDS011;8065;49.520;11.284;2023-01-09T08:50:07;1.43;;;0.50;;
15931;SDS011;8065;49.520;11.284;2023-01-09T08:52:34;1.23;;;0.77;;
15931;SDS011;8065;49.520;11.284;2023-01-09T08:55:00;1.70;;;0.70;;
15931;SDS011;8065;49.520;11.284;2023-01-09T08:57:27;2.40;;;0.70;;
15931;SDS011;8065;49.520;11.284;2023-01-09T08:59:53;3.17;;;0.80;;
15931;SDS011;8065;49.520;11.284;2023-01-09T09:02:21;1.40;;;0.90;;
15931;SDS011;8065;49.520;11.284;2023-01-09T09:04:47;1.93;;;1.10;;
15931;SDS011;8065;49.520;11.284;2023-01-09T09:07:17;1.33;;;0.97;;
15931;SDS011;8065;49.520;11.284;2023-01-09T09:09:50;6.03;;;1.00;;
15931;SDS011;8065;49.520;11.284;2023-01-09T09:12:16;1.60;;;0.80;;
15931;SDS011;8065;49.520;11.284;2023-01-09T09:14:43;3.90;;;0.77;;
15931;SDS011;8065;49.520;11.284;2023-01-09T09:17:28;2.60;;;1.10;;
15931;SDS011;8065;49.520;11.284;2023-01-09T09:19:56;4.13;;;1.13;;
15931;SDS011;8065;49.520;11.284;2023-01-09T09:22:23;4.77;;;1.53;;
15931;SDS011;8065;49.520;11.284;2023-01-09T09:24:49;2.87;;;1.00;;
15931;SDS011;8065;49.520;11.284;2023-01-09T09:27:16;2.43;;;0.90;;
15931;SDS011;8065;49.520;11.284;2023-01-09T09:29:42;3.83;;;1.30;;
15931;SDS011;8065;49.520;11.284;2023-01-09T09:32:09;2.40;;;1.23;;
15931;SDS011;8065;49.520;11.284;2023-01-09T09:34:36;3.67;;;1.40;;
15931;SDS011;8065;49.520;11.284;2023-01-09T09:37:03;5.77;;;1.53;;
15931;SDS011;8065;49.520;11.284;2023-01-09T09:39:29;4.37;;;1.30;;
15931;SDS011;8065;49.520;11.284;2023-01-09T09:42:06;4.50;;;1.73;;
15931;SDS011;8065;49.520;11.284;2023-01-09T09:45:18;4.37;;;1.10;;
15931;SDS011;8065;49.520;11.284;2023-01-09T09:47:53;4.30;;;1.33;;
15931;SDS011;8065;49.520;11.284;2023-01-09T09:50:35;3.23;;;1.40;;
15931;SDS011;8065;49.520;11.284;2023-01-09T09:53:17;2.10;;;1.10;;
15931;SDS011;8065;49.520;11.284;2023-01-09T09:55:50;2.73;;;1.20;;
15931;SDS011;8065;49.520;11.284;2023-01-09T09:58:19;3.63;;;1.10;;
15931;SDS011;8065;49.520;11.284;2023-01-09T10:00:50;5.97;;;1.03;;
15931;SDS011;8065;49.520;11.284;2023-01-09T10:03:21;4.17;;;1.10;;
15931;SDS011;8065;49.520;11.284;2023-01-09T10:05:54;2.53;;;0.90;;
15931;SDS011;8065;49.520;11.284;2023-01-09T10:08:26;4.83;;;1.00;;
15931;SDS011;8065;49.520;11.284;2023-01-09T10:10:59;6.13;;;1.13;;
15931;SDS011;8065;49.520;11.284;2023-01-09T10:13:26;2.73;;;1.10;;
15931;SDS011;8065;49.520;11.284;2023-01-09T10:16:14;3.33;;;0.93;;
15931;SDS011;8065;49.520;11.284;2023-01-09T10:18:52;3.83;;;1.10;;
15931;SDS011;8065;49.520;11.284;2023-01-09T10:21:34;2.87;;;1.00;;
15931;SDS011;8065;49.520;11.284;2023-01-09T10:24:21;2.30;;;1.00;;
15931;SDS011;8065;49.520;11.284;2023-01-09T10:26:56;4.50;;;1.00;;
15931;SDS011;8065;49.520;11.284;2023-01-09T10:29:34;4.67;;;1.03;;
15931;SDS011;8065;49.520;11.284;2023-01-09T10:32:13;4.00;;;1.03;;
15931;SDS011;8065;49.520;11.284;2023-01-09T10:34:53;3.83;;;0.93;;
15931;SDS011;8065;49.520;11.284;2023-01-09T10:37:28;5.30;;;1.30;;
15931;SDS011;8065;49.520;11.284;2023-01-09T10:39:58;3.30;;;1.00;;
15931;SDS011;8065;49.520;11.284;2023-01-09T10:42:31;1.80;;;0.70;;
15931;SDS011;8065;49.520;11.284;2023-01-09T10:45:04;2.87;;;0.90;;
15931;SDS011;8065;49.520;11.284;2023-01-09T10:47:37;3.37;;;1.20;;
15931;SDS011;8065;49.520;11.284;2023-01-09T10:50:12;2.07;;;1.07;;
15931;SDS011;8065;49.520;11.284;2023-01-09T10:52:46;2.60;;;0.90;;
15931;SDS011;8065;49.520;11.284;2023-01-09T10:55:16;3.57;;;1.10;;
15931;SDS011;8065;49.520;11.284;2023-01-09T10:57:44;2.93;;;1.10;;
15931;SDS011;8065;49.520;11.284;2023-01-09T11:00:15;2.30;;;0.80;;
15931;SDS011;8065;49.520;11.284;2023-01-09T11:02:44;2.20;;;1.13;;
15931;SDS011;8065;49.520;11.284;2023-01-09T11:05:12;3.37;;;1.20;;
15931;SDS011;8065;49.520;11.284;2023-01-09T11:07:43;4.83;;;1.00;;
15931;SDS011;8065;49.520;11.284;2023-01-09T11:10:15;4.70;;;1.63;;
15931;SDS011;8065;49.520;11.284;2023-01-09T11:12:41;7.07;;;1.07;;
15931;SDS011;8065;49.520;11.284;2023-01-09T11:15:24;4.17;;;1.10;;
15931;SDS011;8065;49.520;11.284;2023-01-09T11:20:44;3.07;;;1.00;;
15931;SDS011;8065;49.520;11.284;2023-01-09T11:23:25;1.40;;;0.97;;
15931;SDS011;8065;49.520;11.284;2023-01-09T11:25:57;3.23;;;1.30;;
15931;SDS011;8065;49.520;11.284;2023-01-09T11:28:25;6.03;;;2.00;;
15931;SDS011;8065;49.520;11.284;2023-01-09T11:30:53;5.73;;;1.30;;
15931;SDS011;8065;49.520;11.284;2023-01-09T11:33:22;2.13;;;1.10;;
15931;SDS011;8065;49.520;11.284;2023-01-09T11:35:54;1.80;;;0.80;;
15931;SDS011;8065;49.520;11.284;2023-01-09T11:38:23;2.93;;;1.10;;
15931;SDS011;8065;49.520;11.284;2023-01-09T11:40:51;3.37;;;1.30;;
15931;SDS011;8065;49.520;11.284;2023-01-09T11:43:21;2.03;;;1.00;;
15931;SDS011;8065;49.520;11.284;2023-01-09T11:45:56;2.77;;;0.83;;
15931;SDS011;8065;49.520;11.284;2023-01-09T11:48:27;3.47;;;0.87;;
15931;SDS011;8065;49.520;11.284;2023-01-09T11:50:56;2.57;;;0.90;;
15931;SDS011;8065;49.520;11.284;2023-01-09T11:53:24;1.60;;;1.10;;
15931;SDS011;8065;49.520;11.284;2023-01-09T11:55:55;3.07;;;1.10;;
15931;SDS011;8065;49.520;11.284;2023-01-09T11:58:26;2.93;;;1.10;;
15931;SDS011;8065;49.520;11.284;2023-01-09T12:00:56;1.40;;;0.93;;
15931;SDS011;8065;49.520;11.284;2023-01-09T12:03:36;2.53;;;0.90;;
15931;SDS011;8065;49.520;11.284;2023-01-09T12:06:18;3.30;;;0.93;;
15931;SDS011;8065;49.520;11.284;2023-01-09T12:08:52;2.23;;;0.80;;
15931;SDS011;8065;49.520;11.284;2023-01-09T12:11:30;2.43;;;0.80;;
15931;SDS011;8065;49.520;11.284;2023-01-09T12:17:04;1.70;;;0.90;;
15931;SDS011;8065;49.520;11.284;2023-01-09T12:19:59;3.80;;;1.10;;
15931;SDS011;8065;49.520;11.284;2023-01-09T12:22:37;1.83;;;1.30;;
15931;SDS011;8065;49.520;11.284;2023-01-09T12:25:20;2.43;;;0.90;;
15931;SDS011;8065;49.520;11.284;2023-01-09T12:28:00;3.43;;;1.00;;
15931;SDS011;8065;49.520;11.284;2023-01-09T12:30:46;1.70;;;1.10;;
15931;SDS011;8065;49.520;11.284;2023-01-09T12:33:26;2.20;;;0.93;;
15931;SDS011;8065;49.520;11.284;2023-01-09T12:36:07;3.03;;;1.10;;
15931;SDS011;8065;49.520;11.284;2023-01-09T12:38:40;2.63;;;0.90;;
15931;SDS011;8065;49.520;11.284;2023-01-09T12:44:32;3.03;;;0.80;;
15931;SDS011;8065;49.520;11.284;2023-01-09T12:50:21;2.20;;;0.90;;
15931;SDS011;8065;49.520;11.284;2023-01-09T12:53:01;3.17;;;0.90;;
15931;SDS011;8065;49.520;11.284;2023-01-09T12:55:34;2.83;;;1.20;;
15931;SDS011;8065;49.520;11.284;2023-01-09T12:58:07;3.83;;;0.90;;
15931;SDS011;8065;49.520;11.284;2023-01-09T13:00:42;2.00;;;0.80;;
15931;SDS011;8065;49.520;11.284;2023-01-09T13:03:14;3.27;;;1.00;;
15931;SDS011;8065;49.520;11.284;2023-01-09T13:05:46;4.27;;;0.80;;
15931;SDS011;8065;49.520;11.284;2023-01-09T13:08:16;3.07;;;1.00;;
15931;SDS011;8065;49.520;11.284;2023-01-09T13:10:48;1.87;;;1.00;;
15931;SDS011;8065;49.520;11.284;2023-01-09T13:13:17;2.97;;;1.00;;
15931;SDS011;8065;49.520;11.284;2023-01-09T13:15:51;4.47;;;1.20;;
15931;SDS011;8065;49.520;11.284;2023-01-09T13:18:22;2.70;;;1.20;;
15931;SDS011;8065;49.520;11.284;2023-01-09T13:20:53;1.90;;;0.80;;
15931;SDS011;8065;49.520;11.284;2023-01-09T13:23:21;2.27;;;1.00;;
15931;SDS011;8065;49.520;11.284;2023-01-09T13:25:58;2.10;;;1.27;;
15931;SDS011;8065;49.520;11.284;2023-01-09T13:28:28;2.33;;;1.00;;
15931;SDS011;8065;49.520;11.284;2023-01-09T13:31:07;4.27;;;0.80;;
15931;SDS011;8065;49.520;11.284;2023-01-09T13:33:48;2.63;;;1.00;;
15931;SDS011;8065;49.520;11.284;2023-01-09T13:36:22;2.30;;;0.80;;
15931;SDS011;8065;49.520;11.284;2023-01-09T13:38:50;3.20;;;1.10;;
15931;SDS011;8065;49.520;11.284;2023-01-09T13:41:19;3.17;;;1.10;;
15931;SDS011;8065;49.520;11.284;2023-01-09T13:44:04;4.10;;;1.00;;
15931;SDS011;8065;49.520;11.284;2023-01-09T13:46:46;1.83;;;1.07;;
15931;SDS011;8065;49.520;11.284;2023-01-09T13:49:30;1.67;;;1.00;;
15931;SDS011;8065;49.520;11.284;2023-01-09T13:51:59;3.53;;;2.00;;
15931;SDS011;8065;49.520;11.284;2023-01-09T13:57:43;2.47;;;1.63;;
15931;SDS011;8065;49.520;11.284;2023-01-09T14:00:48;1.43;;;1.07;;
15931;SDS011;8065;49.520;11.284;2023-01-09T14:03:20;1.97;;;1.03;;
15931;SDS011;8065;49.520;11.284;2023-01-09T14:08:44;3.43;;;1.00;;
15931;SDS011;8065;49.520;11.284;2023-01-09T14:11:19;2.13;;;1.20;;
15931;SDS011;8065;49.520;11.284;2023-01-09T14:13:51;3.20;;;1.30;;
15931;SDS011;8065;49.520;11.284;2023-01-09T14:16:29;2.30;;;1.27;;
15931;SDS011;8065;49.520;11.284;2023-01-09T14:18:59;4.30;;;1.33;;
15931;SDS011;8065;49.520;11.284;2023-01-09T14:21:41;4.10;;;2.27;;
15931;SDS011;8065;49.520;11.284;2023-01-09T14:24:18;6.17;;;2.83;;
15931;SDS011;8065;49.520;11.284;2023-01-09T14:26:47;2.20;;;1.53;;
15931;SDS011;8065;49.520;11.284;2023-01-09T14:35:20;2.30;;;1.00;;
15931;SDS011;8065;49.520;11.284;2023-01-09T14:37:57;1.63;;;1.10;;
15931;SDS011;8065;49.520;11.284;2023-01-09T14:40:28;3.97;;;1.40;;
15931;SDS011;8065;49.520;11.284;2023-01-09T14:42:56;1.33;;;0.90;;
15931;SDS011;8065;49.520;11.284;2023-01-09T14:45:29;2.17;;;1.00;;
15931;SDS011;8065;49.520;11.284;2023-01-09T14:47:59;3.20;;;1.20;;
15931;SDS011;8065;49.520;11.284;2023-01-09T14:50:31;3.53;;;1.20;;
15931;SDS011;8065;49.520;11.284;2023-01-09T14:52:59;3.03;;;1.00;;
15931;SDS011;8065;49.520;11.284;2023-01-09T14:55:30;3.43;;;1.53;;
15931;SDS011;8065;49.520;11.284;2023-01-09T14:58:11;2.80;;;1.53;;
15931;SDS011;8065;49.520;11.284;2023-01-09T15:00:45;3.60;;;1.23;;
15931;SDS011;8065;49.520;11.284;2023-01-09T15:03:14;1.13;;;1.00;;
15931;SDS011;8065;49.520;11.284;2023-01-09T15:05:42;3.80;;;1.20;;
15931;SDS011;8065;49.520;11.284;2023-01-09T15:08:11;5.00;;;2.00;;
15931;SDS011;8065;49.520;11.284;2023-01-09T15:10:42;4.40;;;2.30;;
15931;SDS011;8065;49.520;11.284;2023-01-09T15:13:13;4.10;;;3.10;;
15931;SDS011;8065;49.520;11.284;2023-01-09T15:15:44;4.03;;;2.60;;
15931;SDS011;8065;49.520;11.284;2023-01-09T15:18:16;4.87;;;2.30;;
15931;SDS011;8065;49.520;11.284;2023-01-09T15:20:47;2.37;;;1.83;;
15931;SDS011;8065;49.520;11.284;2023-01-09T15:23:20;5.27;;;1.93;;
15931;SDS011;8065;49.520;11.284;2023-01-09T15:25:47;3.90;;;2.03;;
15931;SDS011;8065;49.520;11.284;2023-01-09T15:28:28;4.33;;;2.00;;
15931;SDS011;8065;49.520;11.284;2023-01-09T15:30:58;6.13;;;2.80;;
15931;SDS011;8065;49.520;11.284;2023-01-09T15:33:27;3.73;;;2.23;;